sensor_id;sensor_type;location;lat;lon;timestamp;temperature;humidity
9385;DHT22;4732;49.340;10.886;2023-07-31T17:33:59;22.50;99.90
9385;DHT22;4732;49.340;10.886;2023-07-31T17:36:28;22.90;99.90
9385;DHT22;4732;49.340;10.886;2023-07-31T17:38:57;22.70;99.90
9385;DHT22;4732;49.340;10.886;2023-07-31T17:41:23;22.90;99.90
9385;DHT22;4732;49.340;10.886;2023-07-31T17:43:49;22.30;99.90
9385;DHT22;4732;49.340;10.886;2023-07-31T17:46:15;23.20;99.90
9385;DHT22;4732;49.340;10.886;2023-07-31T17:48:40;23.10;99.90
9385;DHT22;4732;49.340;10.886;2023-07-31T17:51:11;22.40;99.90
9385;DHT22;4732;49.340;10.886;2023-07-31T17:53:36;22.00;99.90
9385;DHT22;4732;49.340;10.886;2023-07-31T17:56:02;22.60;99.90
9385;DHT22;4732;49.340;10.886;2023-07-31T17:58:27;22.00;99.90
9385;DHT22;4732;49.340;10.886;2023-07-31T18:00:53;22.60;99.90
9385;DHT22;4732;49.340;10.886;2023-07-31T18:03:22;22.00;99.90
9385;DHT22;4732;49.340;10.886;2023-07-31T18:05:51;21.70;99.90
9385;DHT22;4732;49.340;10.886;2023-07-31T18:08:28;21.90;99.90
9385;DHT22;4732;49.340;10.886;2023-07-31T18:10:53;21.70;99.90
9385;DHT22;4732;49.340;10.886;2023-07-31T18:13:19;21.70;99.90
9385;DHT22;4732;49.340;10.886;2023-07-31T18:15:45;21.60;99.90
9385;DHT22;4732;49.340;10.886;2023-07-31T18:18:11;21.50;99.90
9385;DHT22;4732;49.340;10.886;2023-07-31T18:20:37;21.50;99.90
9385;DHT22;4732;49.340;10.886;2023-07-31T18:23:03;21.50;99.90
9385;DHT22;4732;49.340;10.886;2023-07-31T18:25:29;21.40;99.90
9385;DHT22;4732;49.340;10.886;2023-07-31T18:27:54;21.40;99.90
9385;DHT22;4732;49.340;10.886;2023-07-31T18:30:20;21.40;99.90
9385;DHT22;4732;49.340;10.886;2023-07-31T18:32:47;21.30;99.90
9385;DHT22;4732;49.340;10.886;2023-07-31T18:35:12;21.30;99.90
9385;DHT22;4732;49.340;10.886;2023-07-31T18:37:40;21.30;99.90
9385;DHT22;4732;49.340;10.886;2023-07-31T18:40:06;21.30;99.90
9385;DHT22;4732;49.340;10.886;2023-07-31T18:42:35;21.40;99.90
9385;DHT22;4732;49.340;10.886;2023-07-31T18:45:00;21.30;99.90
9385;DHT22;4732;49.340;10.886;2023-07-31T18:47:27;21.30;99.90
9385;DHT22;4732;49.340;10.886;2023-07-31T18:49:53;21.20;99.90
9385;DHT22;4732;49.340;10.886;2023-07-31T18:52:18;21.10;99.90
9385;DHT22;4732;49.340;10.886;2023-07-31T18:54:44;21.20;99.90
9385;DHT22;4732;49.340;10.886;2023-07-31T18:57:10;21.10;99.90
9385;DHT22;4732;49.340;10.886;2023-07-31T18:59:35;21.10;99.90
9385;DHT22;4732;49.340;10.886;2023-07-31T19:02:01;21.10;99.90
9385;DHT22;4732;49.340;10.886;2023-07-31T19:04:27;21.10;99.90
9385;DHT22;4732;49.340;10.886;2023-07-31T19:06:52;20.90;99.90
9385;DHT22;4732;49.340;10.886;2023-07-31T19:09:44;20.90;99.90
9385;DHT22;4732;49.340;10.886;2023-07-31T19:12:10;20.90;99.90
9385;DHT22;4732;49.340;10.886;2023-07-31T19:14:37;20.90;99.90
9385;DHT22;4732;49.340;10.886;2023-07-31T19:17:03;20.80;99.90
9385;DHT22;4732;49.340;10.886;2023-07-31T19:19:28;20.70;99.90
9385;DHT22;4732;49.340;10.886;2023-07-31T19:22:03;20.60;99.90
9385;DHT22;4732;49.340;10.886;2023-07-31T19:24:35;20.50;99.90
9385;DHT22;4732;49.340;10.886;2023-07-31T19:27:35;20.50;99.90
9385;DHT22;4732;49.340;10.886;2023-07-31T19:30:24;20.40;99.90
9385;DHT22;4732;49.340;10.886;2023-07-31T19:32:59;20.30;99.90
9385;DHT22;4732;49.340;10.886;2023-07-31T19:35:24;20.10;99.90
9385;DHT22;4732;49.340;10.886;2023-07-31T19:38:19;20.00;99.90
9385;DHT22;4732;49.340;10.886;2023-07-31T19:40:52;19.70;99.90
9385;DHT22;4732;49.340;10.886;2023-07-31T19:43:55;19.40;99.90
